Time;durP1;ratioP1;P1;durP2;ratioP2;P2;SDS_P1;SDS_P2;PMS_P1;PMS_P2;Temp;Humidity;BMP_temperature;BMP_pressure;BME280_temperature;BME280_humidity;BME280_pressure;Samples;Min_cycle;Max_cycle;Signal;HPM_P1;HPM_P2
2021/01/06 18:56:00;;;;;;;;;;;12.90;52.00;;;;;;5118041;27;19912;-82
2021/01/06 18:58:26;;;;;;;;;;;10.00;60.30;;;;;;5112446;28;19912;-81
2021/01/06 19:00:52;;;;;;;;;;;7.90;67.80;;;;;;5094781;28;20367;-87
2021/01/06 19:03:26;;;;;;;;;;;6.40;73.20;;;;;;5091856;28;20273;-84
2021/01/06 19:05:53;;;;;;;;;;;5.30;79.10;;;;;;5095397;28;19920;-86
2021/01/06 19:08:22;;;;;;;;;;;4.70;81.90;;;;;;5097636;28;19982;-87
2021/01/06 19:10:48;;;;;;;;;;;4.30;84.60;;;;;;5095957;28;19916;-81
2021/01/06 19:13:13;;;;;;;;;;;3.90;86.80;;;;;;5094777;28;19912;-83
2021/01/06 19:15:43;;;;;;;;;;;3.60;88.30;;;;;;5094534;28;19952;-85
2021/01/06 19:18:20;;;;;;;;;;;3.40;89.90;;;;;;5105351;28;19912;-81
2021/01/06 19:20:55;;;;;;;;;;;3.30;90.40;;;;;;5126500;28;20484;-86
2021/01/06 19:23:28;;;;;;;;;;;3.10;90.90;;;;;;5108302;28;19991;-79
2021/01/06 19:25:54;;;;;;;;;;;3.00;91.10;;;;;;5086777;28;20278;-79
2021/01/06 19:28:29;;;;;;;;;;;2.90;91.70;;;;;;5093431;28;19916;-79
2021/01/06 19:30:56;;;;;;;;;;;2.80;91.90;;;;;;5092131;28;20557;-85
2021/01/06 19:33:37;;;;;;;;;;;2.70;92.30;;;;;;5098160;28;19920;-81
2021/01/06 19:36:06;;;;;;;;;;;2.60;92.70;;;;;;5113362;28;19922;-83
2021/01/06 19:38:44;;;;;;;;;;;2.60;92.90;;;;;;5112532;28;20426;-81
2021/01/06 19:41:10;;;;;;;;;;;2.60;93.00;;;;;;5110152;28;19916;-82
2021/01/06 19:43:38;;;;;;;;;;;2.50;93.00;;;;;;5096291;28;19919;-80
2021/01/06 19:46:03;;;;;;;;;;;2.40;93.20;;;;;;5088755;28;19915;-78
2021/01/06 19:48:29;;;;;;;;;;;2.50;93.30;;;;;;5098269;28;19999;-78
2021/01/06 19:50:56;;;;;;;;;;;2.40;93.40;;;;;;5111834;28;19930;-81
2021/01/06 19:53:21;;;;;;;;;;;2.40;93.50;;;;;;5120083;28;19994;-77
2021/01/06 19:55:57;;;;;;;;;;;2.30;93.70;;;;;;5096231;28;19956;-83
2021/01/06 20:16:26;;;;;;;;;;;2.00;94.90;;;;;;5458024;22;19924;-82
2021/01/06 20:18:52;;;;;;;;;;;1.90;94.90;;;;;;5040813;28;19945;-85
2021/01/06 20:21:21;;;;;;;;;;;1.90;95.00;;;;;;5040712;28;19913;-85
2021/01/06 20:23:48;;;;;;;;;;;2.00;95.00;;;;;;5040642;28;19920;-87
2021/01/06 20:26:16;;;;;;;;;;;1.90;94.90;;;;;;5195896;23;19910;-78
2021/01/06 20:28:46;;;;;;;;;;;1.90;94.90;;;;;;5644537;23;19971;-77
2021/01/06 20:31:13;;;;;;;;;;;1.90;95.00;;;;;;5269037;22;19959;-85
2021/01/06 20:33:39;;;;;;;;;;;2.00;95.00;;;;;;5339685;22;19917;-78
2021/01/06 20:36:04;;;;;;;;;;;1.90;95.10;;;;;;5121294;23;19926;-85
2021/01/06 20:38:30;;;;;;;;;;;1.90;95.10;;;;;;5020949;28;19898;-84
2021/01/06 20:41:02;;;;;;;;;;;1.90;95.10;;;;;;5017569;28;19898;-84
2021/01/06 20:46:03;;;;;;;;;;;1.80;95.30;;;;;;5269365;23;19913;-85
2021/01/06 20:48:29;;;;;;;;;;;1.80;95.40;;;;;;5037814;28;19964;-85
2021/01/06 20:51:12;;;;;;;;;;;1.70;95.40;;;;;;5043314;28;19985;-81
2021/01/06 20:58:41;;;;;;;;;;;1.70;95.50;;;;;;5036389;28;19932;-87
2021/01/06 21:01:07;;;;;;;;;;;1.70;95.60;;;;;;5035102;28;19941;-86
2021/01/06 21:03:32;;;;;;;;;;;1.70;95.60;;;;;;5314245;23;19925;-84
2021/01/06 21:08:33;;;;;;;;;;;1.50;95.80;;;;;;5787413;23;19932;-83
2021/01/06 22:20:54;;;;;;;;;;;1.20;96.30;;;;;;5054367;28;19947;-86
2021/01/06 22:23:20;;;;;;;;;;;1.20;96.10;;;;;;5037205;28;19941;-86
2021/01/06 22:25:46;;;;;;;;;;;1.30;96.10;;;;;;5039171;28;19940;-86
2021/01/06 22:28:12;;;;;;;;;;;1.30;96.00;;;;;;5023550;28;19893;-87
2021/01/06 22:30:38;;;;;;;;;;;1.20;96.00;;;;;;5047965;28;19904;-84
2021/01/06 22:43:27;;;;;;;;;;;0.90;96.50;;;;;;5027716;28;19910;-85
2021/01/06 22:45:53;;;;;;;;;;;0.90;96.70;;;;;;5286446;23;19909;-85
2021/01/06 22:48:18;;;;;;;;;;;0.80;96.70;;;;;;5031567;28;19925;-85
2021/01/06 22:50:46;;;;;;;;;;;0.80;96.90;;;;;;5049478;28;19947;-86
2021/01/06 22:53:19;;;;;;;;;;;0.80;96.80;;;;;;5046831;28;19920;-85
2021/01/06 22:55:46;;;;;;;;;;;0.80;97.10;;;;;;5036394;28;19917;-85
2021/01/06 23:03:49;;;;;;;;;;;0.60;97.20;;;;;;5275061;22;19909;-84
2021/01/06 23:06:16;;;;;;;;;;;0.60;97.30;;;;;;5041911;28;19945;-87
2021/01/06 23:11:47;;;;;;;;;;;0.50;97.30;;;;;;6017199;23;19947;-77
2021/01/06 23:14:13;;;;;;;;;;;0.50;97.50;;;;;;5681542;23;19909;-85
2021/01/06 23:19:14;;;;;;;;;;;0.50;97.70;;;;;;5242173;22;19923;-82
2021/01/06 23:24:11;;;;;;;;;;;0.30;97.50;;;;;;5035364;28;19925;-85
2021/01/06 23:26:37;;;;;;;;;;;0.30;97.70;;;;;;5018951;28;19905;-84
2021/01/06 23:29:04;;;;;;;;;;;0.30;97.60;;;;;;5313620;22;19932;-84
2021/01/06 23:36:33;;;;;;;;;;;0.10;98.20;;;;;;5331662;23;19917;-84
2021/01/06 23:38:59;;;;;;;;;;;0.00;98.30;;;;;;5404677;23;19971;-83
2021/01/06 23:41:24;;;;;;;;;;;-0.10;98.00;;;;;;5062528;28;19900;-84
2021/01/06 23:43:55;;;;;;;;;;;-0.10;98.30;;;;;;5065883;28;19988;-85
2021/01/06 23:52:47;;;;;;;;;;;-0.30;98.20;;;;;;5689788;22;20255;-80
2021/01/06 23:55:13;;;;;;;;;;;-0.30;98.10;;;;;;5036753;28;19921;-85
